Time;durP1;ratioP1;P1;durP2;ratioP2;P2;SDS_P1;SDS_P2;PMS_P1;PMS_P2;Temp;Humidity;BMP_temperature;BMP_pressure;BME280_temperature;BME280_humidity;BME280_pressure;Samples;Min_cycle;Max_cycle;Signal;HPM_P1;HPM_P2
2021/12/11 00:01:19;;;;;;;5.20;2.43;;;;;;;3.88;100.00;99005.16;4998822;28;20197;-55
2021/12/11 00:03:58;;;;;;;2.87;2.20;;;;;;;3.84;100.00;99012.00;5003126;28;20633;-55
2021/12/11 00:06:28;;;;;;;3.43;1.80;;;;;;;3.83;100.00;99017.09;4998007;28;20285;-55
2021/12/11 00:08:57;;;;;;;2.50;1.60;;;;;;;3.79;100.00;99014.53;5010050;28;20200;-55
2021/12/11 00:11:35;;;;;;;2.00;1.40;;;;;;;3.77;100.00;99028.22;5002188;28;20247;-55
2021/12/11 00:14:05;;;;;;;1.80;1.30;;;;;;;3.74;100.00;99033.31;4999020;28;20669;-55
2021/12/11 00:16:33;;;;;;;1.53;1.00;;;;;;;3.70;100.00;99039.31;4999430;28;20220;-55
2021/12/11 00:19:12;;;;;;;2.20;1.13;;;;;;;3.65;100.00;99037.63;4994766;28;20197;-55
2021/12/11 00:21:39;;;;;;;1.57;1.17;;;;;;;3.63;100.00;99041.03;4996803;28;20196;-56
2021/12/11 00:24:15;;;;;;;1.43;1.10;;;;;;;3.62;100.00;99044.44;4998942;28;21699;-56
2021/12/11 00:26:42;;;;;;;1.13;1.00;;;;;;;3.59;100.00;99047.84;5000714;28;20637;-55
2021/12/11 00:29:10;;;;;;;1.43;0.70;;;;;;;3.58;100.00;99050.41;5004374;28;20283;-55
2021/12/11 00:31:45;;;;;;;1.37;0.80;;;;;;;3.57;100.00;99053.81;5007251;28;20192;-56
2021/12/11 00:34:14;;;;;;;1.30;0.97;;;;;;;3.53;100.00;99055.53;5003112;28;20660;-55
2021/12/11 00:36:40;;;;;;;0.67;0.67;;;;;;;3.50;100.00;99066.59;4996424;28;20220;-55
2021/12/11 00:39:13;;;;;;;0.70;0.70;;;;;;;3.50;100.00;99074.28;5019783;28;20219;-55
2021/12/11 00:41:39;;;;;;;0.83;0.70;;;;;;;3.49;100.00;99071.72;4995047;28;20196;-55
2021/12/11 00:44:04;;;;;;;0.80;0.77;;;;;;;3.49;100.00;99074.28;4995763;28;20193;-55
2021/12/11 00:46:32;;;;;;;1.23;0.70;;;;;;;3.48;100.00;99088.75;5000264;28;20578;-55
2021/12/11 00:49:19;;;;;;;0.93;0.60;;;;;;;3.48;100.00;99095.59;5008121;28;20770;-55
2021/12/11 00:51:50;;;;;;;0.50;0.50;;;;;;;3.47;100.00;99099.88;4999191;28;20583;-55
2021/12/11 00:54:19;;;;;;;0.70;0.50;;;;;;;3.48;100.00;99105.84;5003358;28;20184;-55
2021/12/11 00:56:46;;;;;;;0.80;0.77;;;;;;;3.48;100.00;99108.38;5003380;28;20232;-55
2021/12/11 00:59:16;;;;;;;1.00;0.67;;;;;;;3.47;100.00;99110.09;5004282;28;20179;-54
2021/12/11 01:01:55;;;;;;;0.70;0.50;;;;;;;3.46;100.00;99113.50;5021304;28;20336;-55
2021/12/11 01:04:25;;;;;;;0.60;0.60;;;;;;;3.47;100.00;99125.47;5002188;28;20604;-55
2021/12/11 01:06:56;;;;;;;1.60;0.90;;;;;;;3.46;100.00;99128.00;4994629;28;20216;-55
2021/12/11 01:09:22;;;;;;;0.97;0.70;;;;;;;3.45;100.00;99134.81;5024380;28;20193;-55
2021/12/11 01:11:50;;;;;;;0.63;0.50;;;;;;;3.45;100.00;99139.94;5011596;28;20706;-55
2021/12/11 01:14:34;;;;;;;1.17;0.70;;;;;;;3.46;100.00;99153.56;4995282;28;20203;-55
2021/12/11 01:17:08;;;;;;;0.70;0.60;;;;;;;3.45;100.00;99157.84;4995534;28;20650;-55
2021/12/11 01:19:39;;;;;;;0.40;0.40;;;;;;;3.45;100.00;99162.09;5001439;28;20192;-56
2021/12/11 01:22:31;;;;;;;0.60;0.50;;;;;;;3.45;100.00;99173.19;5013527;28;20188;-55
2021/12/11 01:25:01;;;;;;;0.50;0.50;;;;;;;3.45;100.00;99177.44;4991678;28;20652;-55
2021/12/11 01:27:27;;;;;;;0.50;0.50;;;;;;;3.45;100.00;99183.44;5006882;28;20212;-55
2021/12/11 01:29:56;;;;;;;0.50;0.50;;;;;;;3.46;100.00;99187.69;5019469;28;20256;-55
2021/12/11 01:32:23;;;;;;;0.50;0.50;;;;;;;3.47;100.00;99193.66;5018831;28;20683;-55
2021/12/11 01:34:50;;;;;;;0.57;0.50;;;;;;;3.46;100.00;99200.47;5000931;28;20643;-56
2021/12/11 01:37:16;;;;;;;1.53;0.50;;;;;;;3.47;100.00;99211.56;5000611;28;20274;-55
2021/12/11 01:39:42;;;;;;;0.70;0.60;;;;;;;3.45;100.00;99209.00;5012027;28;20224;-55
2021/12/11 01:42:12;;;;;;;0.50;0.50;;;;;;;3.46;100.00;99214.97;5015603;28;20211;-54
2021/12/11 01:44:40;;;;;;;0.63;0.57;;;;;;;3.46;100.00;99226.06;5007050;28;20558;-55
2021/12/11 01:47:15;;;;;;;0.40;0.40;;;;;;;3.46;100.00;99227.75;5000364;28;20233;-54
2021/12/11 01:49:43;;;;;;;0.67;0.67;;;;;;;3.45;100.00;99224.34;5004414;28;20595;-55
2021/12/11 01:52:38;;;;;;;0.60;0.60;;;;;;;3.44;100.00;99232.88;4999579;28;20200;-55
2021/12/11 01:55:18;;;;;;;0.70;0.53;;;;;;;3.43;100.00;99245.63;5011312;28;20269;-55
2021/12/11 01:57:51;;;;;;;0.60;0.50;;;;;;;3.42;100.00;99246.47;5013270;28;20243;-55
2021/12/11 02:00:23;;;;;;;0.70;0.50;;;;;;;3.41;100.00;99255.88;5111946;27;20198;-55
2021/12/11 02:02:52;;;;;;;0.63;0.53;;;;;;;3.41;100.00;99265.22;5003258;28;20200;-55
2021/12/11 02:05:26;;;;;;;0.80;0.70;;;;;;;3.39;100.00;99264.41;5008553;28;20197;-53
2021/12/11 02:08:00;;;;;;;0.90;0.80;;;;;;;3.39;100.00;99277.19;5000165;28;20228;-55
2021/12/11 02:10:35;;;;;;;1.30;0.73;;;;;;;3.37;100.00;99284.00;5014066;28;20206;-55
2021/12/11 02:13:04;;;;;;;0.60;0.60;;;;;;;3.34;100.00;99288.25;5009758;28;20664;-55
2021/12/11 02:15:35;;;;;;;1.13;0.80;;;;;;;3.33;100.00;99296.75;5006805;28;20213;-55
2021/12/11 02:18:10;;;;;;;0.87;0.80;;;;;;;3.31;100.00;99298.44;4990779;28;20243;-55
2021/12/11 02:20:42;;;;;;;0.70;0.70;;;;;;;3.32;100.00;99299.31;5004217;28;20205;-55
2021/12/11 02:23:09;;;;;;;1.10;1.00;;;;;;;3.30;100.00;99309.53;4997561;28;20193;-56
2021/12/11 02:25:40;;;;;;;1.07;0.97;;;;;;;3.29;100.00;99312.09;5007450;28;20189;-55
2021/12/11 02:28:08;;;;;;;1.00;0.90;;;;;;;3.28;100.00;99318.06;4999791;28;20653;-56
2021/12/11 02:30:48;;;;;;;1.00;0.90;;;;;;;3.26;100.00;99330.81;5003468;28;20278;-55
2021/12/11 02:33:34;;;;;;;0.80;0.80;;;;;;;3.26;100.00;99340.19;5012667;28;20618;-55
2021/12/11 02:36:10;;;;;;;1.23;1.13;;;;;;;3.24;100.00;99342.75;5003219;28;20230;-55
2021/12/11 02:38:48;;;;;;;1.13;1.03;;;;;;;3.23;100.00;99346.16;5007280;28;20187;-55
2021/12/11 02:41:17;;;;;;;1.27;1.10;;;;;;;3.23;100.00;99355.53;5009242;28;20724;-55
2021/12/11 02:43:51;;;;;;;1.43;1.27;;;;;;;3.24;100.00;99362.34;5013617;28;20188;-55
2021/12/11 02:46:22;;;;;;;1.43;1.33;;;;;;;3.24;100.00;99364.91;5013004;28;20260;-55
2021/12/11 02:48:57;;;;;;;1.47;1.37;;;;;;;3.25;100.00;99374.28;5003590;28;20207;-55
2021/12/11 02:51:39;;;;;;;1.57;1.47;;;;;;;3.26;100.00;99381.13;4997179;28;20789;-55
2021/12/11 02:54:04;;;;;;;1.57;1.47;;;;;;;3.26;100.00;99391.34;5009632;28;20192;-55
2021/12/11 02:56:35;;;;;;;1.40;1.30;;;;;;;3.27;100.00;99391.34;4998909;28;20217;-55
2021/12/11 02:59:07;;;;;;;1.33;1.20;;;;;;;3.28;100.00;99389.66;5027265;28;20954;-55
2021/12/11 03:01:41;;;;;;;1.17;1.07;;;;;;;3.30;100.00;99403.31;5017198;28;20656;-54
2021/12/11 03:04:22;;;;;;;1.57;1.47;;;;;;;3.30;100.00;99400.75;5002707;28;20298;-54
2021/12/11 03:06:50;;;;;;;1.60;1.50;;;;;;;3.29;100.00;99409.28;5030950;28;20712;-55
2021/12/11 03:09:20;;;;;;;2.03;1.80;;;;;;;3.29;100.00;99417.78;5018863;28;20187;-54
2021/12/11 03:11:46;;;;;;;1.80;1.70;;;;;;;3.29;100.00;99427.16;5009380;28;20189;-54
2021/12/11 03:14:14;;;;;;;2.10;1.90;;;;;;;3.26;100.00;99420.31;5022914;28;20201;-54
2021/12/11 03:16:42;;;;;;;2.87;2.57;;;;;;;3.27;100.00;99431.41;5010516;28;21355;-54
2021/12/11 03:19:10;;;;;;;2.50;2.30;;;;;;;3.27;100.00;99437.38;5008475;28;20215;-54
2021/12/11 03:21:36;;;;;;;5.97;5.07;;;;;;;3.26;100.00;99437.38;5009900;28;20195;-54
2021/12/11 03:24:03;;;;;;;3.30;3.00;;;;;;;3.27;100.00;99446.75;4998946;28;20215;-54
2021/12/11 03:26:29;;;;;;;3.90;3.50;;;;;;;3.24;100.00;99450.16;5008932;28;20340;-55
2021/12/11 03:28:55;;;;;;;3.70;3.40;;;;;;;3.23;100.00;99456.13;5007549;28;20289;-54
2021/12/11 03:31:20;;;;;;;3.90;3.50;;;;;;;3.22;100.00;99462.06;5021281;28;20692;-55
2021/12/11 03:33:51;;;;;;;3.57;3.17;;;;;;;3.22;100.00;99469.75;5011569;28;20192;-54
2021/12/11 03:36:21;;;;;;;3.60;3.30;;;;;;;3.22;100.00;99471.44;5009381;28;20229;-54
2021/12/11 03:38:55;;;;;;;3.57;3.27;;;;;;;3.22;100.00;99482.53;5007451;28;20196;-55
2021/12/11 03:41:22;;;;;;;4.03;3.60;;;;;;;3.21;100.00;99488.47;5014065;28;20664;-55
2021/12/11 03:43:48;;;;;;;3.80;3.50;;;;;;;3.20;100.00;99500.41;5013994;28;20192;-54
2021/12/11 03:46:14;;;;;;;4.17;3.77;;;;;;;3.19;100.00;99503.78;5005846;28;20635;-55
2021/12/11 03:48:44;;;;;;;3.87;3.57;;;;;;;3.18;100.00;99507.19;4996769;28;20641;-54
2021/12/11 03:51:14;;;;;;;4.37;3.97;;;;;;;3.19;100.00;99519.13;4999093;28;20278;-55
2021/12/11 03:53:40;;;;;;;4.13;3.77;;;;;;;3.19;100.00;99523.41;4998293;28;20193;-55
2021/12/11 03:56:09;;;;;;;5.17;4.53;;;;;;;3.17;100.00;99519.97;5010197;28;20688;-55
2021/12/11 03:58:35;;;;;;;5.47;4.97;;;;;;;3.16;100.00;99520.81;5013706;28;20191;-55
2021/12/11 04:01:18;;;;;;;4.47;4.07;;;;;;;3.16;100.00;99531.03;5057376;28;20466;-55
2021/12/11 04:03:53;;;;;;;6.00;5.40;;;;;;;3.15;100.00;99537.88;5012884;28;20693;-55
2021/12/11 04:06:20;;;;;;;4.67;4.27;;;;;;;3.15;100.00;99540.44;5016790;28;20238;-55
2021/12/11 04:08:47;;;;;;;5.40;4.90;;;;;;;3.15;100.00;99542.13;4999761;28;20205;-55
2021/12/11 04:11:19;;;;;;;5.27;4.77;;;;;;;3.14;100.00;99542.94;5001664;28;20265;-55
2021/12/11 04:13:47;;;;;;;5.40;4.70;;;;;;;3.13;100.00;99551.47;5019832;28;20557;-55
2021/12/11 04:16:14;;;;;;;5.80;4.80;;;;;;;3.13;100.00;99554.03;5001381;28;20567;-56
2021/12/11 04:18:40;;;;;;;6.10;5.50;;;;;;;3.11;100.00;99555.69;5003397;28;20676;-55
2021/12/11 04:21:06;;;;;;;5.40;4.90;;;;;;;3.11;100.00;99563.38;5003399;28;20219;-56
2021/12/11 04:23:32;;;;;;;5.67;5.17;;;;;;;3.09;100.00;99568.47;5012759;28;20216;-55
2021/12/11 04:25:58;;;;;;;5.97;5.47;;;;;;;3.08;100.00;99576.16;5015929;28;20177;-55
2021/12/11 04:28:30;;;;;;;6.07;5.10;;;;;;;3.08;100.00;99578.72;5006303;28;20203;-55
2021/12/11 04:31:04;;;;;;;6.10;5.60;;;;;;;3.07;100.00;99590.63;5001962;28;20191;-55
2021/12/11 04:33:33;;;;;;;6.70;5.70;;;;;;;3.07;100.00;99588.06;5009500;28;20745;-55
2021/12/11 04:35:58;;;;;;;6.57;5.97;;;;;;;3.07;100.00;99595.72;4998301;28;20767;-55
2021/12/11 04:38:24;;;;;;;7.43;6.10;;;;;;;3.08;100.00;99601.72;5003997;28;20196;-55
2021/12/11 04:40:53;;;;;;;6.80;6.10;;;;;;;3.07;100.00;99611.06;4993745;28;20208;-55
2021/12/11 04:43:23;;;;;;;7.23;6.10;;;;;;;3.06;100.00;99611.91;5001517;28;20205;-55
2021/12/11 04:45:59;;;;;;;6.67;6.03;;;;;;;3.05;100.00;99618.72;5009375;28;20636;-56
2021/12/11 04:49:29;;;;;;;6.50;5.90;;;;;;;3.05;100.00;99628.97;5005906;28;20188;-55
2021/12/11 04:51:30;;;;;;;6.37;5.73;;;;;;;3.05;100.00;99638.31;4996380;28;20205;-55
2021/12/11 05:10:20;;;;;;;7.50;6.80;;;;;;;3.06;100.00;99663.03;4998030;28;20196;-55
2021/12/11 05:12:44;;;;;;;6.57;5.97;;;;;;;3.04;100.00;99673.25;4999580;28;20280;-55
2021/12/11 05:15:26;;;;;;;6.67;6.03;;;;;;;3.04;100.00;99672.38;4998025;28;20193;-55
2021/12/11 05:17:52;;;;;;;7.50;6.90;;;;;;;3.03;100.00;99684.31;4994391;28;20295;-55
2021/12/11 05:20:21;;;;;;;7.20;6.50;;;;;;;3.02;100.00;99694.53;4995509;28;20195;-55
2021/12/11 05:22:47;;;;;;;7.67;6.87;;;;;;;3.00;100.00;99696.22;4999492;28;20652;-55
2021/12/11 05:25:14;;;;;;;7.43;6.73;;;;;;;2.98;100.00;99698.72;5003924;28;20455;-55
2021/12/11 05:27:41;;;;;;;7.67;6.97;;;;;;;2.98;100.00;99713.22;5021093;28;20220;-55
2021/12/11 05:30:13;;;;;;;7.57;6.87;;;;;;;2.99;100.00;99709.84;5026009;28;20241;-54
2021/12/11 05:32:38;;;;;;;7.60;6.90;;;;;;;2.99;100.00;99715.78;4997869;28;20197;-54
2021/12/11 05:35:06;;;;;;;7.60;6.90;;;;;;;3.00;100.00;99721.78;5003377;28;20192;-55
2021/12/11 05:37:31;;;;;;;6.90;6.30;;;;;;;3.00;100.00;99724.34;4994823;28;20244;-54
2021/12/11 05:39:57;;;;;;;7.47;6.87;;;;;;;3.00;100.00;99729.44;4996162;28;20214;-54
2021/12/11 05:42:22;;;;;;;7.47;6.80;;;;;;;3.01;100.00;99728.59;5005431;28;20653;-54
2021/12/11 05:44:48;;;;;;;7.80;7.00;;;;;;;3.00;100.00;99730.28;5011133;28;20204;-54
2021/12/11 05:47:13;;;;;;;8.97;8.13;;;;;;;3.00;100.00;99742.22;4991556;28;20212;-54
2021/12/11 05:49:41;;;;;;;8.50;7.70;;;;;;;2.99;100.00;99741.34;4994960;28;20189;-54
2021/12/11 05:52:09;;;;;;;8.60;7.80;;;;;;;3.00;100.00;99752.44;5004872;28;20197;-54
2021/12/11 05:54:37;;;;;;;7.93;7.23;;;;;;;3.01;100.00;99759.28;4993824;28;20185;-54
2021/12/11 05:57:07;;;;;;;8.43;7.63;;;;;;;3.01;100.00;99757.56;4989276;28;20223;-54
2021/12/11 05:59:34;;;;;;;8.33;7.63;;;;;;;3.01;100.00;99769.50;4997979;28;20731;-55
2021/12/11 06:02:23;;;;;;;8.53;7.80;;;;;;;3.01;100.00;99775.47;4991855;28;20662;-55
2021/12/11 06:04:51;;;;;;;8.77;7.97;;;;;;;3.01;100.00;99787.41;4992212;28;20571;-54
2021/12/11 06:07:19;;;;;;;8.67;7.97;;;;;;;3.03;100.00;99783.16;4991493;28;20211;-54
2021/12/11 06:09:51;;;;;;;8.67;7.93;;;;;;;3.04;100.00;99787.41;5000492;28;20253;-54
2021/12/11 06:12:18;;;;;;;8.77;8.07;;;;;;;3.03;100.00;99804.47;5023829;28;20191;-54
2021/12/11 06:14:47;;;;;;;8.73;7.93;;;;;;;3.04;100.00;99805.31;4995272;28;20188;-54
2021/12/11 06:17:25;;;;;;;9.03;8.23;;;;;;;3.05;100.00;99807.91;5098794;27;20223;-53
2021/12/11 06:19:53;;;;;;;9.10;8.30;;;;;;;3.05;100.00;99819.81;4998710;28;20284;-56
2021/12/11 06:22:21;;;;;;;8.93;8.13;;;;;;;3.06;100.00;99813.88;4998686;28;20669;-55
2021/12/11 06:24:47;;;;;;;8.73;7.93;;;;;;;3.07;100.00;99820.72;4991142;28;20241;-55
2021/12/11 06:27:12;;;;;;;9.27;8.47;;;;;;;3.08;100.00;99824.97;4988512;28;20212;-55
2021/12/11 06:29:38;;;;;;;9.60;8.70;;;;;;;3.06;100.00;99821.53;5001269;28;20249;-55
2021/12/11 06:32:04;;;;;;;9.50;8.60;;;;;;;3.08;100.00;99826.69;4996294;28;20197;-55
2021/12/11 06:34:31;;;;;;;10.90;9.90;;;;;;;3.05;100.00;99828.38;4996460;28;20241;-55
2021/12/11 06:37:00;;;;;;;10.20;9.27;;;;;;;3.04;100.00;99831.75;5001452;28;20228;-55
2021/12/11 06:39:25;;;;;;;11.43;10.33;;;;;;;3.05;100.00;99845.38;4993980;28;20207;-55
2021/12/11 06:41:54;;;;;;;10.57;9.57;;;;;;;3.05;100.00;99853.94;4995502;28;20191;-55
2021/12/11 06:44:27;;;;;;;11.37;10.27;;;;;;;3.06;100.00;99852.22;4996476;28;20708;-55
2021/12/11 06:46:54;;;;;;;11.10;10.00;;;;;;;3.05;100.00;99863.28;4994236;28;20212;-55
2021/12/11 06:49:20;;;;;;;11.83;10.80;;;;;;;3.04;100.00;99865.00;4995775;28;20197;-55
2021/12/11 06:51:45;;;;;;;11.57;10.57;;;;;;;3.04;100.00;99874.34;4997168;28;20250;-55
2021/12/11 06:54:11;;;;;;;11.67;10.57;;;;;;;3.03;100.00;99877.72;5003961;28;20197;-54
2021/12/11 06:56:39;;;;;;;11.83;10.80;;;;;;;3.04;100.00;99882.00;4994544;28;20227;-55
2021/12/11 06:59:07;;;;;;;11.33;10.33;;;;;;;3.03;100.00;99893.06;5000646;28;20196;-54
2021/12/11 07:01:36;;;;;;;11.23;10.23;;;;;;;3.03;100.00;99901.63;5004012;28;20197;-55
2021/12/11 07:04:05;;;;;;;11.77;10.67;;;;;;;3.03;100.00;99909.28;5012025;28;20196;-55
2021/12/11 07:06:31;;;;;;;11.27;10.27;;;;;;;3.05;100.00;99917.84;5010317;28;20238;-55
2021/12/11 07:08:58;;;;;;;10.97;9.97;;;;;;;3.05;100.00;99917.84;4994160;28;20669;-55
2021/12/11 07:11:24;;;;;;;12.60;11.40;;;;;;;3.05;100.00;99924.63;5046245;28;20288;-55
2021/12/11 07:13:50;;;;;;;17.63;13.20;;;;;;;3.05;100.00;99932.31;5014946;28;20194;-55
2021/12/11 07:16:16;;;;;;;22.43;15.70;;;;;;;3.04;100.00;99934.03;5015266;28;20551;-54
2021/12/11 07:18:41;;;;;;;16.43;14.40;;;;;;;3.04;100.00;99949.38;5013688;28;20181;-54
2021/12/11 07:21:07;;;;;;;16.60;14.07;;;;;;;3.04;100.00;99951.03;5018262;28;20276;-55
2021/12/11 07:23:34;;;;;;;16.97;14.60;;;;;;;3.05;100.00;99963.88;5003782;28;20300;-55
2021/12/11 07:26:13;;;;;;;15.57;13.97;;;;;;;3.07;100.00;99973.25;4998035;28;20200;-55
2021/12/11 07:28:44;;;;;;;18.40;16.40;;;;;;;3.05;100.00;99965.56;5018830;28;20196;-55
2021/12/11 07:31:10;;;;;;;29.83;23.17;;;;;;;3.04;100.00;99982.59;4997253;28;20204;-55
2021/12/11 07:33:35;;;;;;;26.53;22.00;;;;;;;3.06;100.00;99992.84;5004101;28;20192;-56
2021/12/11 07:36:01;;;;;;;22.07;19.67;;;;;;;3.08;100.00;100000.56;4994330;28;20212;-55
2021/12/11 07:38:26;;;;;;;17.50;15.70;;;;;;;3.07;100.00;100003.94;5020983;28;20209;-55
2021/12/11 07:40:58;;;;;;;16.40;14.80;;;;;;;3.07;100.00;100009.91;5000377;28;20189;-56
2021/12/11 07:43:25;;;;;;;15.70;14.20;;;;;;;3.07;100.00;100017.56;4995905;28;20197;-54
2021/12/11 07:45:51;;;;;;;14.90;13.40;;;;;;;3.10;100.00;100024.47;4998029;28;20188;-55
2021/12/11 07:48:17;;;;;;;14.13;12.83;;;;;;;3.12;100.00;100031.31;5007315;28;20210;-54
2021/12/11 07:50:43;;;;;;;14.33;12.93;;;;;;;3.14;100.00;100039.00;5040152;28;20623;-54
2021/12/11 07:53:09;;;;;;;14.60;13.30;;;;;;;3.15;100.00;100040.72;5008046;28;20195;-57
2021/12/11 07:55:35;;;;;;;13.97;12.77;;;;;;;3.17;100.00;100046.72;5015240;28;20193;-55
2021/12/11 07:58:05;;;;;;;15.70;14.20;;;;;;;3.17;100.00;100057.84;5004302;28;20216;-55
2021/12/11 08:00:31;;;;;;;14.00;12.70;;;;;;;3.19;100.00;100057.84;5008072;28;20184;-54
2021/12/11 08:02:57;;;;;;;14.27;12.97;;;;;;;3.23;100.00;100064.75;5019760;28;20257;-55
2021/12/11 08:05:26;;;;;;;15.73;14.23;;;;;;;3.27;100.00;100071.63;5022178;28;20235;-55
2021/12/11 08:07:51;;;;;;;14.93;13.43;;;;;;;3.31;100.00;100080.22;5020232;28;20208;-55
2021/12/11 08:10:20;;;;;;;14.03;12.73;;;;;;;3.35;100.00;100080.31;5029420;28;20207;-55
2021/12/11 08:12:46;;;;;;;14.27;12.97;;;;;;;3.40;100.00;100087.19;5020881;28;20247;-55
2021/12/11 08:15:14;;;;;;;14.13;12.63;;;;;;;3.43;100.00;100090.66;4997784;28;20366;-54
2021/12/11 08:17:40;;;;;;;13.90;12.70;;;;;;;3.46;100.00;100097.53;5004747;28;20273;-55
2021/12/11 08:20:09;;;;;;;14.60;13.27;;;;;;;3.49;100.00;100098.41;4997651;28;20591;-55
2021/12/11 08:22:35;;;;;;;15.07;13.60;;;;;;;3.51;100.00;100099.31;4996783;28;20196;-55
2021/12/11 08:25:00;;;;;;;13.63;12.43;;;;;;;3.54;100.00;100103.66;5007309;28;20197;-54
2021/12/11 08:27:27;;;;;;;14.50;13.20;;;;;;;3.57;100.00;100107.94;4998255;28;20220;-56
2021/12/11 08:29:54;;;;;;;15.10;13.70;;;;;;;3.59;100.00;100106.28;4998388;28;20217;-56
2021/12/11 08:32:21;;;;;;;14.80;13.43;;;;;;;3.65;100.00;100121.72;5005878;28;20223;-56
2021/12/11 08:34:46;;;;;;;14.47;13.17;;;;;;;3.70;100.00;100125.22;5011343;28;20569;-56
2021/12/11 08:37:15;;;;;;;16.10;14.53;;;;;;;3.70;100.00;100120.09;4993796;28;20224;-55
2021/12/11 08:39:44;;;;;;;19.27;17.27;;;;;;;3.71;100.00;100124.38;4997350;28;20206;-55
2021/12/11 08:42:14;;;;;;;19.60;17.53;;;;;;;3.73;100.00;100132.94;5009556;28;20226;-55
2021/12/11 08:44:49;;;;;;;24.63;22.03;;;;;;;3.75;100.00;100140.66;4995276;28;20648;-55
2021/12/11 08:47:15;;;;;;;22.30;20.00;;;;;;;3.76;100.00;100142.38;4994069;28;20208;-55
2021/12/11 08:49:41;;;;;;;23.27;20.87;;;;;;;3.80;100.00;100139.88;5001776;28;20193;-55
2021/12/11 08:52:15;;;;;;;21.70;19.40;;;;;;;3.89;100.00;100151.97;5004028;28;20204;-55
2021/12/11 08:54:41;;;;;;;19.40;17.40;;;;;;;3.99;100.00;100162.38;5001074;28;20245;-55
2021/12/11 08:57:09;;;;;;;19.47;17.57;;;;;;;4.09;100.00;100166.78;4997704;28;20228;-54
2021/12/11 08:59:38;;;;;;;21.43;19.33;;;;;;;4.13;100.00;100166.00;5002617;28;20258;-54
2021/12/11 09:02:21;;;;;;;19.53;17.67;;;;;;;4.17;100.00;100175.44;5005994;28;20244;-55
2021/12/11 09:04:55;;;;;;;20.13;18.07;;;;;;;4.23;100.00;100180.69;5005319;28;20222;-56
2021/12/11 09:07:44;;;;;;;19.43;17.43;;;;;;;4.32;100.00;100187.63;5006905;28;20277;-55
2021/12/11 09:10:17;;;;;;;17.10;15.43;;;;;;;4.39;100.00;100202.25;5004758;28;20612;-55
2021/12/11 09:13:04;;;;;;;15.80;14.40;;;;;;;4.49;100.00;100199.84;4997052;28;20200;-55
2021/12/11 09:15:36;;;;;;;14.80;13.50;;;;;;;4.56;100.00;100204.19;4998216;28;20201;-55
2021/12/11 09:18:07;;;;;;;15.00;13.60;;;;;;;4.63;100.00;100228.22;4998420;28;20331;-55
2021/12/11 09:20:40;;;;;;;13.67;12.37;;;;;;;4.67;100.00;100230.00;4998023;28;20183;-55
2021/12/11 09:23:15;;;;;;;13.60;12.40;;;;;;;4.73;100.00;100230.94;5004117;28;20280;-56
2021/12/11 09:25:53;;;;;;;13.47;12.20;;;;;;;4.79;100.00;100240.41;4999932;28;20200;-55
2021/12/11 09:28:23;;;;;;;12.80;11.60;;;;;;;4.86;100.00;100236.22;4998509;28;20240;-55
2021/12/11 09:31:04;;;;;;;12.70;11.50;;;;;;;4.93;100.00;100238.06;5018389;28;20192;-54
2021/12/11 09:33:37;;;;;;;13.03;11.93;;;;;;;4.97;100.00;100242.38;4995299;28;20212;-55
2021/12/11 09:36:19;;;;;;;12.57;11.47;;;;;;;5.01;100.00;100250.97;5009276;28;20720;-55
2021/12/11 09:38:52;;;;;;;11.80;10.70;;;;;;;5.02;100.00;100253.53;4994544;28;20280;-55
2021/12/11 09:41:19;;;;;;;11.93;10.83;;;;;;;5.04;100.00;100267.25;4992817;28;20193;-55
2021/12/11 09:44:04;;;;;;;12.27;11.17;;;;;;;5.06;100.00;100266.41;5001515;28;20200;-55
2021/12/11 09:46:34;;;;;;;12.27;11.17;;;;;;;5.05;100.00;100270.72;4992505;28;20210;-55
2021/12/11 09:49:02;;;;;;;13.67;12.47;;;;;;;5.08;100.00;100269.88;4988991;28;20228;-55
2021/12/11 09:51:35;;;;;;;13.03;11.83;;;;;;;5.10;100.00;100273.31;4998580;28;20215;-55
2021/12/11 09:54:05;;;;;;;12.87;11.77;;;;;;;5.12;100.00;100279.34;5002071;28;20506;-56
2021/12/11 09:56:36;;;;;;;13.53;12.37;;;;;;;5.13;100.00;100269.09;5000703;28;20220;-55
2021/12/11 09:59:06;;;;;;;13.90;12.70;;;;;;;5.14;100.00;100275.09;5000275;28;20183;-54
2021/12/11 10:01:36;;;;;;;13.17;11.97;;;;;;;5.09;100.00;100277.56;5013643;28;20193;-54
2021/12/11 10:04:16;;;;;;;13.23;12.03;;;;;;;5.01;100.00;100279.19;5020125;28;20283;-55
2021/12/11 10:09:27;;;;;;;13.20;12.00;;;;;;;4.77;100.00;100279.69;4999317;28;20224;-54
2021/12/11 10:12:01;;;;;;;13.33;12.23;;;;;;;4.67;100.00;100277.00;5000824;28;20551;-55
2021/12/11 10:14:34;;;;;;;13.57;12.27;;;;;;;4.59;100.00;100283.72;4991617;28;20713;-54
2021/12/11 10:17:04;;;;;;;14.37;13.07;;;;;;;4.55;100.00;100287.94;4993679;28;20230;-55
2021/12/11 10:19:30;;;;;;;14.10;12.70;;;;;;;4.53;100.00;100288.75;5009079;28;20689;-55
2021/12/11 10:22:09;;;;;;;15.10;13.57;;;;;;;4.51;100.00;100291.28;4993744;28;20225;-55
2021/12/11 10:24:37;;;;;;;15.07;13.67;;;;;;;4.50;100.00;100293.81;4994800;28;20195;-55
2021/12/11 10:27:05;;;;;;;15.40;13.93;;;;;;;4.52;100.00;100297.28;4996289;28;20215;-55
2021/12/11 10:29:31;;;;;;;15.13;13.67;;;;;;;4.53;100.00;100301.56;4993711;28;20246;-55
2021/12/11 10:32:05;;;;;;;15.27;13.87;;;;;;;4.56;100.00;100305.03;4996561;28;20180;-55
2021/12/11 10:34:32;;;;;;;14.40;13.00;;;;;;;4.55;100.00;100305.88;5001331;28;20658;-55
2021/12/11 10:36:59;;;;;;;14.57;13.20;;;;;;;4.59;100.00;100309.34;4994401;28;20241;-55
2021/12/11 10:39:26;;;;;;;13.93;12.63;;;;;;;4.65;100.00;100312.00;4994078;28;20193;-55
2021/12/11 10:41:52;;;;;;;13.90;12.57;;;;;;;4.76;100.00;100306.19;4992914;28;20193;-55
2021/12/11 10:44:28;;;;;;;14.13;12.80;;;;;;;4.96;100.00;100316.72;4996736;28;20317;-56
2021/12/11 10:47:04;;;;;;;14.13;12.83;;;;;;;5.14;100.00;100318.72;4992415;28;20235;-56
2021/12/11 10:49:34;;;;;;;13.67;12.47;;;;;;;5.31;100.00;100321.50;4990840;28;20219;-56
2021/12/11 10:52:13;;;;;;;13.40;12.20;;;;;;;5.46;100.00;100328.50;4991891;28;20373;-56
2021/12/11 10:54:39;;;;;;;14.83;13.40;;;;;;;5.57;100.00;100329.53;4991351;28;20449;-56
2021/12/11 10:57:05;;;;;;;12.73;11.50;;;;;;;5.54;100.00;100334.63;5100544;27;20210;-56
2021/12/11 10:59:35;;;;;;;12.27;11.17;;;;;;;5.45;100.00;100332.78;5007505;28;20197;-56
2021/12/11 11:02:14;;;;;;;11.20;10.10;;;;;;;5.34;100.00;100344.63;5013097;28;20332;-55
2021/12/11 11:04:50;;;;;;;10.57;9.53;;;;;;;5.22;100.00;100352.16;5009785;28;20618;-56
2021/12/11 11:07:16;;;;;;;9.87;8.97;;;;;;;5.09;100.00;100351.97;4998999;28;20639;-56
2021/12/11 11:09:43;;;;;;;10.23;9.33;;;;;;;4.96;100.00;100360.31;5019497;28;20560;-56
2021/12/11 11:12:15;;;;;;;9.80;8.90;;;;;;;4.85;100.00;100362.72;5002942;28;20193;-56
2021/12/11 11:14:41;;;;;;;9.07;8.27;;;;;;;4.76;100.00;100362.59;5002987;28;20196;-55
2021/12/11 11:17:14;;;;;;;9.20;8.30;;;;;;;4.71;100.00;100368.50;4994575;28;20217;-56
2021/12/11 11:19:43;;;;;;;8.57;7.77;;;;;;;4.72;100.00;100362.53;5019978;28;20189;-56
2021/12/11 11:22:13;;;;;;;8.83;8.03;;;;;;;4.76;100.00;100363.47;4995916;28;20599;-55
2021/12/11 11:24:45;;;;;;;9.03;8.20;;;;;;;4.83;100.00;100359.28;5013037;28;20220;-56
2021/12/11 11:27:11;;;;;;;9.30;8.40;;;;;;;4.86;100.00;100361.88;4996457;28;20287;-55
2021/12/11 11:29:38;;;;;;;9.97;9.07;;;;;;;4.90;100.00;100367.94;4999765;28;20217;-55
2021/12/11 11:32:08;;;;;;;9.83;8.93;;;;;;;4.93;100.00;100366.28;5015918;27;20197;-55
2021/12/11 11:34:40;;;;;;;9.10;8.20;;;;;;;4.92;100.00;100367.13;4994167;28;20197;-56
2021/12/11 11:37:09;;;;;;;9.83;8.93;;;;;;;4.92;100.00;100366.25;5014453;28;20225;-55
2021/12/11 11:39:35;;;;;;;10.90;9.90;;;;;;;4.94;100.00;100364.56;4998559;28;20184;-55
2021/12/11 11:42:11;;;;;;;9.77;8.87;;;;;;;4.96;100.00;100373.16;5003205;28;20305;-55
2021/12/11 11:44:41;;;;;;;8.90;8.10;;;;;;;4.96;100.00;100371.47;5035273;28;20180;-55
2021/12/11 11:47:07;;;;;;;9.60;8.80;;;;;;;4.94;100.00;100378.25;4995771;28;20940;-55
2021/12/11 11:49:34;;;;;;;9.17;8.37;;;;;;;4.87;100.00;100381.56;5001510;28;20197;-55
2021/12/11 11:52:13;;;;;;;8.87;8.07;;;;;;;4.81;100.00;100371.22;5012487;28;20193;-55
2021/12/11 11:54:43;;;;;;;9.80;8.90;;;;;;;4.75;100.00;100383.94;4994803;28;20641;-55
2021/12/11 11:57:17;;;;;;;9.13;8.33;;;;;;;4.72;100.00;100380.47;5025826;28;20714;-55